Time;durP1;ratioP1;P1;durP2;ratioP2;P2;SDS_P1;SDS_P2;PMS_P1;PMS_P2;Temp;Humidity;BMP_temperature;BMP_pressure;BME280_temperature;BME280_humidity;BME280_pressure;Samples;Min_cycle;Max_cycle;Signal;HPM_P1;HPM_P2
2023/05/14 00:00:35;;;;;;;6.72;4.50;;;;;;;14.49;72.77;102146.72;5096528;27;99212;-33
2023/05/14 00:03:00;;;;;;;9.20;4.90;;;;;;;14.50;72.54;102148.47;5096910;27;96477;-31
2023/05/14 00:05:25;;;;;;;8.38;4.68;;;;;;;14.42;72.44;102139.84;5096549;27;96818;-31
2023/05/14 00:07:51;;;;;;;7.88;5.15;;;;;;;14.44;72.68;102152.44;5096735;27;98021;-30
2023/05/14 00:10:17;;;;;;;9.75;5.13;;;;;;;14.42;73.06;102129.81;5096246;27;98729;-31
2023/05/14 00:12:43;;;;;;;7.50;4.35;;;;;;;14.43;72.67;102138.88;5096665;27;96625;-31
2023/05/14 00:15:08;;;;;;;7.10;4.45;;;;;;;14.40;72.67;102136.34;5078529;27;96921;-32
2023/05/14 00:17:35;;;;;;;6.60;4.80;;;;;;;14.36;73.42;102135.63;5096297;27;97425;-31
2023/05/14 00:20:01;;;;;;;8.20;4.82;;;;;;;14.34;73.22;102140.25;5096635;27;97432;-30
2023/05/14 00:22:26;;;;;;;8.25;5.20;;;;;;;14.30;72.77;102127.81;5096447;27;96689;-31
2023/05/14 00:24:52;;;;;;;9.68;5.43;;;;;;;14.28;73.10;102118.81;5096346;27;96819;-31
2023/05/14 00:27:17;;;;;;;8.65;4.47;;;;;;;14.25;73.45;102116.25;5095432;27;99338;-31
2023/05/14 00:29:44;;;;;;;7.05;4.47;;;;;;;14.27;72.84;102118.91;5077574;27;100709;-33
2023/05/14 00:32:09;;;;;;;7.35;4.65;;;;;;;14.26;72.94;102117.16;5095548;27;96746;-31
2023/05/14 00:34:35;;;;;;;5.90;4.15;;;;;;;14.24;73.39;102109.06;5096457;27;96839;-31
2023/05/14 00:37:00;;;;;;;6.63;4.47;;;;;;;14.18;73.18;102107.56;5076625;27;99212;-31
2023/05/14 00:39:26;;;;;;;6.95;4.43;;;;;;;14.14;73.35;102105.09;5096278;27;97895;-31
2023/05/14 00:41:51;;;;;;;7.72;4.78;;;;;;;14.18;73.28;102114.84;5096522;27;96708;-33
2023/05/14 00:44:16;;;;;;;6.55;4.30;;;;;;;14.13;73.90;102111.50;5061060;27;96906;-31
2023/05/14 00:46:42;;;;;;;10.63;4.90;;;;;;;14.10;73.47;102112.56;5095998;27;97516;-31
2023/05/14 00:49:08;;;;;;;7.57;4.15;;;;;;;14.08;73.44;102109.03;5095677;27;97757;-32
2023/05/14 00:51:33;;;;;;;9.20;4.45;;;;;;;14.06;73.94;102110.09;5096124;27;96674;-31
2023/05/14 00:53:59;;;;;;;7.75;5.03;;;;;;;14.08;73.65;102097.25;5096177;27;96740;-32
2023/05/14 00:56:26;;;;;;;7.13;4.68;;;;;;;14.02;73.57;102099.38;5077035;27;99470;-30
2023/05/14 00:58:51;;;;;;;9.27;4.75;;;;;;;14.00;74.10;102103.16;5095697;27;98747;-31
2023/05/14 01:01:16;;;;;;;9.60;5.10;;;;;;;13.98;74.12;102103.22;5096488;27;96715;-30
2023/05/14 01:03:42;;;;;;;8.07;4.40;;;;;;;14.00;73.77;102109.47;5095652;27;96829;-31
2023/05/14 01:06:20;;;;;;;8.05;3.72;;;;;;;13.97;74.07;102111.50;5076907;27;100808;-31
2023/05/14 01:08:48;;;;;;;9.15;4.63;;;;;;;13.97;74.01;102116.94;5077354;27;100794;-31
2023/05/14 01:11:32;;;;;;;7.97;4.35;;;;;;;13.94;73.85;102107.09;5096063;27;96485;-31
2023/05/14 01:14:07;;;;;;;7.13;4.13;;;;;;;13.90;74.04;102102.78;5077374;27;96706;-30
2023/05/14 01:16:33;;;;;;;9.57;4.20;;;;;;;13.86;74.21;102103.03;5095082;27;97528;-31
2023/05/14 01:19:00;;;;;;;7.38;4.22;;;;;;;13.84;74.08;102100.38;5059879;27;101236;-33
2023/05/14 01:21:34;;;;;;;6.47;3.95;;;;;;;13.83;74.41;102098.63;5095778;27;96926;-30
2023/05/14 01:24:00;;;;;;;7.22;4.32;;;;;;;13.76;74.35;102099.94;5095838;27;97900;-31
2023/05/14 01:26:25;;;;;;;8.43;4.15;;;;;;;13.72;74.23;102101.94;5095081;27;99125;-31
2023/05/14 01:28:52;;;;;;;7.07;4.07;;;;;;;13.73;73.98;102102.81;5095253;27;99133;-31
2023/05/14 01:31:26;;;;;;;7.13;4.05;;;;;;;13.72;74.49;102104.66;5094868;27;96593;-31
2023/05/14 01:33:56;;;;;;;5.90;3.50;;;;;;;13.66;74.67;102101.38;5096261;27;96538;-32
2023/05/14 01:36:22;;;;;;;8.90;4.57;;;;;;;13.62;74.84;102088.91;5076520;27;101199;-31
2023/05/14 01:38:50;;;;;;;8.75;4.75;;;;;;;13.61;74.66;102090.78;5095521;27;97950;-31
2023/05/14 01:41:17;;;;;;;6.88;4.15;;;;;;;13.59;74.93;102090.84;5076538;27;96654;-31
2023/05/14 01:43:44;;;;;;;8.38;4.47;;;;;;;13.60;74.50;102099.88;5076902;27;96925;-30
2023/05/14 01:46:09;;;;;;;7.05;4.35;;;;;;;13.60;74.41;102100.75;5076507;27;101429;-31
2023/05/14 01:48:36;;;;;;;9.50;3.45;;;;;;;13.55;74.66;102083.81;5097911;27;97465;-30
2023/05/14 01:51:02;;;;;;;7.57;3.80;;;;;;;13.50;74.84;102085.03;5080394;27;96539;-30
2023/05/14 01:53:27;;;;;;;7.70;4.07;;;;;;;13.51;74.60;102090.38;5063630;27;96589;-31
2023/05/14 01:55:52;;;;;;;6.68;4.00;;;;;;;13.45;74.53;102084.41;5098708;27;98075;-30
2023/05/14 01:58:18;;;;;;;5.57;3.47;;;;;;;13.44;74.81;102086.22;5099017;27;97408;-31
2023/05/14 02:00:44;;;;;;;8.43;4.13;;;;;;;13.45;74.99;102081.69;5099082;27;96502;-31
2023/05/14 02:03:09;;;;;;;7.00;4.03;;;;;;;13.41;74.86;102075.50;5098625;27;96956;-30
2023/05/14 02:05:34;;;;;;;8.68;3.97;;;;;;;13.45;74.77;102079.81;5097994;27;97982;-33
2023/05/14 02:08:00;;;;;;;7.80;3.83;;;;;;;13.43;75.20;102068.13;5098799;27;97258;-31
2023/05/14 02:10:25;;;;;;;6.07;3.60;;;;;;;13.47;75.31;102068.88;5098637;27;96698;-30
2023/05/14 02:12:51;;;;;;;7.15;3.78;;;;;;;13.45;74.90;102068.94;5098468;27;96839;-32
2023/05/14 02:15:16;;;;;;;7.10;3.92;;;;;;;13.44;74.71;102074.44;5098418;27;97912;-31
2023/05/14 02:17:41;;;;;;;7.22;4.35;;;;;;;13.40;74.92;102062.88;5098370;27;97368;-31
2023/05/14 02:20:09;;;;;;;6.13;3.53;;;;;;;13.34;75.61;102057.75;5098683;27;96769;-31
2023/05/14 02:22:34;;;;;;;7.32;3.88;;;;;;;13.35;75.18;102065.84;5080280;27;96908;-32
2023/05/14 02:24:59;;;;;;;7.55;3.63;;;;;;;13.36;75.36;102066.72;5097846;27;99533;-30
2023/05/14 02:27:25;;;;;;;5.95;3.72;;;;;;;13.33;75.24;102069.59;5098362;27;97985;-30
2023/05/14 02:29:50;;;;;;;6.38;3.53;;;;;;;13.30;75.22;102065.22;5079624;27;96664;-31
2023/05/14 02:32:16;;;;;;;7.18;3.80;;;;;;;13.31;75.34;102066.06;5097837;27;96819;-32
2023/05/14 02:34:41;;;;;;;6.22;3.53;;;;;;;13.31;75.30;102074.25;5098475;27;97381;-32
2023/05/14 02:37:07;;;;;;;5.97;3.55;;;;;;;13.27;75.62;102078.03;5097652;27;98768;-31
2023/05/14 02:39:33;;;;;;;6.80;3.88;;;;;;;13.25;75.58;102072.72;5062349;27;96615;-31
2023/05/14 02:41:58;;;;;;;11.32;3.83;;;;;;;13.24;75.61;102070.06;5098458;27;96982;-33
2023/05/14 02:44:23;;;;;;;5.70;3.63;;;;;;;13.21;75.81;102067.50;5097783;27;98849;-31
2023/05/14 02:46:49;;;;;;;8.35;4.07;;;;;;;13.21;75.54;102067.50;5098357;27;97767;-31
2023/05/14 02:49:14;;;;;;;7.65;3.58;;;;;;;13.20;75.62;102065.72;5097962;27;96697;-30
2023/05/14 02:51:39;;;;;;;7.18;3.78;;;;;;;13.16;76.58;102071.34;5098258;27;96818;-31
2023/05/14 02:54:05;;;;;;;6.50;3.55;;;;;;;13.13;75.76;102063.34;5097003;27;99913;-31
2023/05/14 02:56:30;;;;;;;6.15;3.45;;;;;;;13.11;76.40;102059.81;5097691;27;98028;-31
2023/05/14 02:58:55;;;;;;;6.32;3.42;;;;;;;13.06;76.01;102058.28;5097485;27;96560;-30
2023/05/14 03:01:21;;;;;;;6.93;3.30;;;;;;;13.04;76.50;102060.22;5098164;27;96467;-32
2023/05/14 03:03:46;;;;;;;7.28;3.40;;;;;;;13.07;76.37;102060.06;5097650;27;97909;-31
2023/05/14 03:06:11;;;;;;;7.50;4.00;;;;;;;13.06;76.56;102052.84;5097583;27;97791;-30
2023/05/14 03:08:37;;;;;;;10.63;3.83;;;;;;;13.02;76.54;102059.44;5097842;27;96619;-33
2023/05/14 03:11:02;;;;;;;6.60;3.65;;;;;;;13.02;77.13;102054.00;5098277;27;96772;-32
2023/05/14 03:13:27;;;;;;;5.72;3.60;;;;;;;13.01;77.16;102057.66;5097139;27;99581;-32
2023/05/14 03:15:55;;;;;;;8.00;3.50;;;;;;;13.00;76.43;102054.06;5097037;27;99718;-31
2023/05/14 03:18:21;;;;;;;6.88;4.00;;;;;;;12.96;76.79;102042.44;5096840;27;96576;-32
2023/05/14 03:20:47;;;;;;;5.50;3.30;;;;;;;12.95;76.75;102048.00;5097787;27;96997;-31
2023/05/14 03:23:13;;;;;;;8.00;4.05;;;;;;;12.95;76.77;102050.72;5097076;27;97830;-30
2023/05/14 03:25:39;;;;;;;8.60;4.00;;;;;;;12.89;77.23;102043.72;5078428;27;101345;-31
2023/05/14 03:28:04;;;;;;;9.82;4.13;;;;;;;12.88;76.94;102038.41;5097674;27;96498;-31
2023/05/14 03:30:29;;;;;;;6.10;4.10;;;;;;;12.89;77.19;102042.84;5097529;27;96783;-31
2023/05/14 03:32:56;;;;;;;10.05;4.65;;;;;;;12.86;77.11;102046.63;5096349;27;97896;-30
2023/05/14 03:35:21;;;;;;;5.72;3.80;;;;;;;12.84;78.00;102039.50;5078816;27;100798;-30
2023/05/14 03:37:46;;;;;;;6.82;3.90;;;;;;;12.83;77.85;102033.19;5097117;27;96637;-31
2023/05/14 03:40:12;;;;;;;7.80;3.97;;;;;;;12.81;77.12;102040.53;5097551;27;96802;-30
2023/05/14 03:42:37;;;;;;;10.77;4.15;;;;;;;12.75;77.89;102036.31;5096632;27;98359;-31
2023/05/14 03:45:03;;;;;;;6.93;3.97;;;;;;;12.70;78.08;102041.13;5096863;27;97304;-31
2023/05/14 03:47:28;;;;;;;8.55;4.85;;;;;;;12.74;78.03;102037.25;5096947;27;96674;-33
2023/05/14 03:49:53;;;;;;;7.57;4.47;;;;;;;12.74;78.55;102036.38;5096981;27;96861;-32
2023/05/14 03:52:19;;;;;;;7.30;3.92;;;;;;;12.76;78.00;102034.47;5096802;27;97889;-31
2023/05/14 03:54:44;;;;;;;10.82;4.20;;;;;;;12.75;77.78;102021.81;5078429;27;97817;-31
2023/05/14 03:57:09;;;;;;;8.75;4.05;;;;;;;12.81;77.98;102037.81;5097093;27;96424;-32
2023/05/14 03:59:35;;;;;;;5.80;3.80;;;;;;;12.74;77.83;102029.09;5097380;27;96837;-32
2023/05/14 04:02:00;;;;;;;7.45;3.83;;;;;;;12.74;77.87;102015.50;5096867;27;97930;-31
2023/05/14 04:04:26;;;;;;;8.40;4.03;;;;;;;12.74;77.76;102029.09;5096254;27;99127;-30
2023/05/14 04:06:51;;;;;;;7.18;4.07;;;;;;;12.75;78.03;102028.16;5096477;27;96417;-30
2023/05/14 04:09:16;;;;;;;7.95;4.30;;;;;;;12.74;78.35;102023.66;5096702;27;96764;-32
2023/05/14 04:11:42;;;;;;;9.48;4.00;;;;;;;12.74;78.54;102023.66;5095269;27;99291;-31
2023/05/14 04:14:07;;;;;;;6.97;3.97;;;;;;;12.78;78.08;102028.97;5096306;27;99218;-33
2023/05/14 04:16:32;;;;;;;5.38;3.15;;;;;;;12.68;78.36;102024.00;5096755;27;96457;-31
2023/05/14 04:19:01;;;;;;;7.90;3.65;;;;;;;12.69;79.11;102027.59;5096587;27;96925;-31
2023/05/14 04:21:26;;;;;;;9.90;4.03;;;;;;;12.67;78.63;102034.94;5077717;27;101190;-30
2023/05/14 04:23:52;;;;;;;5.82;3.58;;;;;;;12.68;78.64;102037.59;5096746;27;96993;-31
2023/05/14 04:26:17;;;;;;;7.80;4.28;;;;;;;12.65;78.69;102026.84;5096665;27;96508;-30
2023/05/14 04:28:42;;;;;;;8.35;4.20;;;;;;;12.64;79.15;102035.09;5096481;27;96826;-31
2023/05/14 04:31:08;;;;;;;6.90;4.05;;;;;;;12.65;78.47;102035.00;5095768;27;97320;-31
2023/05/14 04:33:33;;;;;;;7.65;3.53;;;;;;;12.65;79.10;102028.69;5096243;27;97989;-31
2023/05/14 04:35:58;;;;;;;8.32;3.85;;;;;;;12.66;78.57;102038.63;5077809;27;96595;-31
2023/05/14 04:38:24;;;;;;;6.68;3.65;;;;;;;12.66;78.44;102031.34;5096048;27;96791;-32
2023/05/14 04:40:49;;;;;;;6.45;3.47;;;;;;;12.68;78.98;102043.03;5095909;27;99769;-31
2023/05/14 04:43:16;;;;;;;6.70;3.83;;;;;;;12.68;78.95;102034.88;5096091;27;97875;-33
2023/05/14 04:45:41;;;;;;;5.57;3.67;;;;;;;12.69;79.04;102039.34;5096294;27;96552;-31
2023/05/14 04:48:07;;;;;;;7.13;4.05;;;;;;;12.67;78.99;102037.66;5096602;27;96828;-30
2023/05/14 04:50:33;;;;;;;7.70;4.10;;;;;;;12.61;79.54;102036.16;5095943;27;98029;-31
2023/05/14 04:52:59;;;;;;;7.65;3.53;;;;;;;12.61;79.75;102024.38;5095772;27;98776;-30
2023/05/14 04:55:24;;;;;;;10.30;3.60;;;;;;;12.66;79.04;102036.78;5095882;27;96490;-31
2023/05/14 04:57:49;;;;;;;9.23;3.70;;;;;;;12.67;78.95;102026.78;5095846;27;96851;-31
2023/05/14 05:00:16;;;;;;;5.40;3.17;;;;;;;12.69;78.95;102038.47;5095949;27;98006;-32
2023/05/14 05:02:41;;;;;;;7.20;3.55;;;;;;;12.68;78.99;102025.81;5077102;27;101088;-31
2023/05/14 05:05:07;;;;;;;8.73;3.78;;;;;;;12.69;79.36;102036.63;5095905;27;96683;-31
2023/05/14 05:07:32;;;;;;;7.28;3.65;;;;;;;12.70;79.07;102041.13;5095754;27;96943;-31
2023/05/14 05:09:59;;;;;;;10.50;4.50;;;;;;;12.67;79.60;102034.94;5095870;27;97909;-31
2023/05/14 05:12:24;;;;;;;6.10;3.55;;;;;;;12.70;79.23;102035.69;5077274;27;101541;-30
2023/05/14 05:14:50;;;;;;;7.20;4.03;;;;;;;12.74;79.20;102053.56;5096072;27;96433;-30
2023/05/14 05:17:15;;;;;;;7.32;3.65;;;;;;;12.68;79.66;102043.03;5095863;27;96754;-31
2023/05/14 05:19:41;;;;;;;8.93;4.43;;;;;;;12.70;79.74;102041.13;5094826;27;99254;-31
2023/05/14 05:22:06;;;;;;;5.60;3.70;;;;;;;12.73;79.25;102040.94;5096038;27;97231;-30
2023/05/14 05:24:31;;;;;;;7.95;4.05;;;;;;;12.74;79.06;102037.25;5099691;27;96612;-31
2023/05/14 05:26:57;;;;;;;6.57;3.88;;;;;;;12.80;79.76;102046.03;5099616;27;96627;-32
2023/05/14 05:29:23;;;;;;;7.78;4.35;;;;;;;12.82;79.08;102044.13;5099100;27;97858;-32
2023/05/14 05:31:49;;;;;;;6.32;3.63;;;;;;;12.82;79.41;102049.56;5079550;27;101021;-31
2023/05/14 05:34:15;;;;;;;6.20;3.78;;;;;;;12.83;79.68;102051.34;5099146;27;96635;-31
2023/05/14 05:36:40;;;;;;;6.78;3.72;;;;;;;12.88;79.10;102049.28;5099467;27;96838;-31
2023/05/14 05:39:05;;;;;;;6.05;3.53;;;;;;;12.85;79.87;102053.03;5099046;27;97920;-32
2023/05/14 05:41:31;;;;;;;8.48;4.22;;;;;;;12.87;78.80;102058.38;5099097;27;97271;-32
2023/05/14 05:43:56;;;;;;;5.60;3.63;;;;;;;12.88;79.98;102054.72;5062958;27;96671;-31
2023/05/14 05:46:21;;;;;;;12.10;4.55;;;;;;;12.87;80.20;102056.56;5099364;27;96796;-31
2023/05/14 05:48:47;;;;;;;6.03;3.70;;;;;;;12.90;79.40;102058.22;5099078;27;97409;-30
2023/05/14 05:51:12;;;;;;;10.10;4.18;;;;;;;12.92;78.90;102053.59;5098589;27;97215;-31
2023/05/14 05:53:38;;;;;;;9.85;4.28;;;;;;;13.00;78.65;102059.50;5099078;27;96579;-31
2023/05/14 05:56:03;;;;;;;10.15;4.97;;;;;;;13.05;79.71;102061.97;5098853;27;96796;-30
2023/05/14 05:58:28;;;;;;;6.57;3.97;;;;;;;13.07;78.94;102060.06;5098769;27;97132;-31
2023/05/14 06:00:56;;;;;;;9.27;4.47;;;;;;;13.07;79.32;102065.50;5099141;27;97766;-31
2023/05/14 06:03:22;;;;;;;7.93;4.38;;;;;;;13.11;79.18;102068.00;5098800;27;97315;-31
2023/05/14 06:05:47;;;;;;;7.07;4.47;;;;;;;13.11;80.48;102073.44;5079883;27;96897;-31
2023/05/14 06:08:12;;;;;;;8.93;4.10;;;;;;;13.12;80.40;102080.63;5079453;27;100824;-32
2023/05/14 06:10:38;;;;;;;6.72;4.10;;;;;;;13.12;79.40;102080.63;5098188;27;98804;-31
2023/05/14 06:13:03;;;;;;;9.20;4.30;;;;;;;13.11;79.63;102078.88;5098629;27;96658;-31
2023/05/14 06:15:29;;;;;;;7.40;4.45;;;;;;;13.14;79.29;102080.56;5098555;27;96810;-31
2023/05/14 06:17:54;;;;;;;7.57;4.47;;;;;;;13.12;79.55;102077.91;5098430;27;97977;-31
2023/05/14 06:20:19;;;;;;;7.68;4.13;;;;;;;13.10;80.27;102066.22;5098314;27;97742;-30
2023/05/14 06:22:45;;;;;;;8.55;4.80;;;;;;;13.13;79.68;102082.41;5098315;27;96591;-31
2023/05/14 06:25:10;;;;;;;8.00;4.68;;;;;;;13.14;79.43;102072.38;5099043;27;96837;-31
2023/05/14 06:27:36;;;;;;;7.70;4.60;;;;;;;13.09;79.68;102079.91;5098309;27;97939;-31
2023/05/14 06:30:01;;;;;;;12.07;5.15;;;;;;;13.04;80.03;102079.25;5098236;27;97253;-31
2023/05/14 06:32:27;;;;;;;8.43;4.70;;;;;;;13.04;81.37;102080.16;5078463;27;96963;-32
2023/05/14 06:34:52;;;;;;;10.60;4.75;;;;;;;13.05;80.58;102081.91;5097373;27;96817;-32
2023/05/14 06:37:17;;;;;;;8.77;4.90;;;;;;;13.11;80.69;102089.75;5097986;27;97914;-31
2023/05/14 06:39:48;;;;;;;9.80;4.72;;;;;;;13.14;81.86;102084.13;5097717;27;99751;-30
2023/05/14 06:42:14;;;;;;;12.48;4.95;;;;;;;13.14;81.08;102081.41;5098610;27;96613;-31
2023/05/14 06:44:40;;;;;;;9.05;4.72;;;;;;;13.17;81.48;102086.69;5079660;27;96818;-32
2023/05/14 06:47:07;;;;;;;9.05;4.85;;;;;;;13.09;81.81;102079.91;5097543;27;99482;-31
2023/05/14 06:49:33;;;;;;;9.65;4.97;;;;;;;13.14;80.67;102089.59;5097908;27;98903;-33
2023/05/14 06:51:58;;;;;;;12.73;5.65;;;;;;;13.17;80.49;102096.69;5079416;27;96663;-31
2023/05/14 06:54:24;;;;;;;12.80;5.90;;;;;;;13.16;80.43;102089.50;5097873;27;96924;-32
2023/05/14 06:56:49;;;;;;;12.07;6.25;;;;;;;13.20;80.11;102080.22;5097305;27;98403;-31
2023/05/14 06:59:15;;;;;;;14.55;6.55;;;;;;;13.24;80.15;102094.53;5097569;27;99368;-30
2023/05/14 07:01:40;;;;;;;15.45;7.38;;;;;;;13.23;79.30;102085.50;5098115;27;96480;-32
2023/05/14 07:04:05;;;;;;;10.00;5.65;;;;;;;13.26;79.91;102079.03;5097914;27;96825;-31
2023/05/14 07:06:31;;;;;;;10.98;6.38;;;;;;;13.30;80.03;102078.81;5097476;27;98047;-30
2023/05/14 07:08:57;;;;;;;13.57;6.35;;;;;;;13.33;80.50;102080.50;5097340;27;99123;-31
2023/05/14 07:11:22;;;;;;;11.35;6.68;;;;;;;13.35;80.54;102068.56;5097824;27;96545;-31
2023/05/14 07:13:47;;;;;;;13.15;6.30;;;;;;;13.40;79.93;102075.59;5097921;27;96848;-31
2023/05/14 07:16:13;;;;;;;12.85;7.30;;;;;;;13.45;79.52;102066.22;5097393;27;97926;-30
2023/05/14 07:18:39;;;;;;;12.18;6.63;;;;;;;13.57;79.92;102067.38;5097072;27;97784;-30
2023/05/14 07:21:05;;;;;;;11.00;6.50;;;;;;;13.67;80.49;102071.34;5078396;27;96579;-30
2023/05/14 07:23:31;;;;;;;10.23;6.35;;;;;;;13.71;79.64;102056.63;5078833;27;96921;-32
2023/05/14 07:25:57;;;;;;;11.93;6.97;;;;;;;13.69;79.91;102065.84;5097156;27;98159;-31
2023/05/14 07:28:22;;;;;;;11.25;5.68;;;;;;;13.71;79.41;102051.19;5097204;27;97659;-30
2023/05/14 07:30:47;;;;;;;10.07;6.00;;;;;;;13.85;79.17;102058.59;5097524;27;96604;-31
2023/05/14 07:33:13;;;;;;;15.48;6.22;;;;;;;14.01;78.62;102062.22;5096723;27;96998;-31
2023/05/14 07:35:38;;;;;;;10.55;5.88;;;;;;;14.16;77.86;102062.31;5097133;27;97649;-30
2023/05/14 07:38:05;;;;;;;8.68;5.38;;;;;;;14.24;77.93;102062.72;5097214;27;99332;-30
2023/05/14 07:40:30;;;;;;;11.15;5.85;;;;;;;14.35;77.05;102059.34;5097141;27;96548;-31
2023/05/14 07:42:55;;;;;;;10.32;6.65;;;;;;;14.28;77.22;102061.59;5097422;27;96791;-30
2023/05/14 07:45:21;;;;;;;8.15;5.35;;;;;;;14.24;77.26;102054.53;5096719;27;97437;-31
2023/05/14 07:47:50;;;;;;;12.30;7.05;;;;;;;14.34;77.74;102050.31;5096880;27;97244;-31
2023/05/14 07:50:16;;;;;;;9.73;6.00;;;;;;;14.58;77.67;102052.59;5097043;27;96563;-31
2023/05/14 07:52:41;;;;;;;9.70;5.40;;;;;;;14.76;76.93;102048.78;5078611;27;96747;-30
2023/05/14 07:55:07;;;;;;;12.75;6.32;;;;;;;14.95;75.85;102044.97;5097269;27;97355;-30
2023/05/14 07:57:32;;;;;;;8.13;5.13;;;;;;;15.13;75.29;102049.25;5096702;27;97747;-30
2023/05/14 07:59:58;;;;;;;15.38;7.10;;;;;;;15.28;74.45;102048.34;5097300;27;96725;-30
2023/05/14 08:02:23;;;;;;;11.40;6.15;;;;;;;15.41;74.11;102048.44;5097220;27;96811;-31
2023/05/14 08:04:48;;;;;;;10.82;6.38;;;;;;;15.56;73.84;102049.31;5096317;27;97894;-31
2023/05/14 08:07:14;;;;;;;11.77;6.40;;;;;;;15.63;73.39;102041.63;5096491;27;98703;-31
2023/05/14 08:09:39;;;;;;;10.30;6.10;;;;;;;15.76;73.51;102052.69;5096562;27;96527;-30
2023/05/14 08:12:05;;;;;;;8.63;5.22;;;;;;;15.89;73.33;102050.91;5096988;27;96780;-31
2023/05/14 08:14:30;;;;;;;11.95;6.35;;;;;;;16.01;72.98;102052.84;5077686;27;100846;-32
2023/05/14 08:16:56;;;;;;;13.18;6.95;;;;;;;16.13;72.84;102049.28;5096239;27;99191;-33
2023/05/14 08:19:22;;;;;;;10.77;6.03;;;;;;;16.29;72.18;102049.16;5096589;27;96485;-31
2023/05/14 08:21:48;;;;;;;13.13;6.18;;;;;;;16.39;71.68;102041.22;5078099;27;96938;-31
2023/05/14 08:24:13;;;;;;;9.40;6.07;;;;;;;16.52;71.39;102054.97;5096313;27;97912;-31
2023/05/14 08:26:39;;;;;;;12.90;5.45;;;;;;;16.64;71.21;102047.78;5096619;27;97955;-31
2023/05/14 08:29:04;;;;;;;12.82;6.05;;;;;;;16.69;70.91;102045.63;5096719;27;96502;-30
2023/05/14 08:31:30;;;;;;;11.13;5.93;;;;;;;16.75;70.69;102045.19;5095422;27;96869;-30
2023/05/14 08:33:55;;;;;;;15.77;6.85;;;;;;;16.85;71.01;102048.19;5095974;27;98080;-31
2023/05/14 08:36:20;;;;;;;11.18;5.78;;;;;;;16.96;70.55;102051.06;5096260;27;97824;-31
2023/05/14 08:38:47;;;;;;;10.10;5.35;;;;;;;17.08;69.87;102052.06;5095800;27;96746;-31
2023/05/14 08:41:15;;;;;;;8.48;5.47;;;;;;;17.07;69.81;102044.88;5077521;27;96918;-31
2023/05/14 08:44:08;;;;;;;10.45;5.80;;;;;;;17.07;69.38;102047.59;5077107;27;102333;-31
2023/05/14 08:46:35;;;;;;;9.77;5.72;;;;;;;16.84;70.05;102039.09;5074758;27;101018;-34
2023/05/14 08:49:41;;;;;;;9.10;5.07;;;;;;;16.61;70.41;102045.25;5074920;27;97197;-31
2023/05/14 08:52:11;;;;;;;7.03;4.35;;;;;;;16.45;70.53;102034.47;5070724;27;97118;-33
2023/05/14 08:54:37;;;;;;;9.77;4.75;;;;;;;16.51;70.86;102037.66;5074569;27;101611;-32
2023/05/14 08:57:04;;;;;;;12.55;5.53;;;;;;;16.61;70.94;102018.75;5073958;27;101109;-32
2023/05/14 08:59:29;;;;;;;10.02;4.28;;;;;;;16.89;70.05;102020.50;5074993;27;96842;-33
2023/05/14 09:01:57;;;;;;;7.63;4.57;;;;;;;17.01;69.78;102018.78;5096060;27;96843;-30
2023/05/14 09:04:23;;;;;;;7.78;4.18;;;;;;;17.11;69.27;102032.69;5076800;27;101645;-30
2023/05/14 09:06:51;;;;;;;6.82;3.90;;;;;;;17.13;68.58;102017.91;5077028;27;101431;-31
2023/05/14 09:09:17;;;;;;;8.05;3.78;;;;;;;17.10;68.45;102020.00;5095892;27;96492;-31
2023/05/14 09:11:50;;;;;;;8.35;3.75;;;;;;;17.08;69.04;102017.34;5077334;27;96804;-31
2023/05/14 09:14:15;;;;;;;4.88;3.40;;;;;;;17.02;69.08;102012.34;5095510;27;98525;-31
2023/05/14 09:16:44;;;;;;;5.13;3.35;;;;;;;16.98;68.76;102017.13;5095888;27;99424;-31
2023/05/14 09:19:11;;;;;;;8.10;3.38;;;;;;;17.10;69.25;102017.25;5077327;27;96881;-31
2023/05/14 09:21:36;;;;;;;6.03;3.53;;;;;;;17.36;68.63;102007.19;5095579;27;96865;-31
2023/05/14 09:24:02;;;;;;;5.63;2.97;;;;;;;17.67;67.39;102004.97;5094847;27;99538;-30
2023/05/14 09:26:31;;;;;;;7.72;3.17;;;;;;;17.93;67.30;101998.47;5077273;27;97236;-31
2023/05/14 09:29:03;;;;;;;4.10;3.03;;;;;;;18.07;65.92;101991.06;5077022;27;96800;-31
2023/05/14 09:31:31;;;;;;;5.90;3.38;;;;;;;18.34;65.52;101985.38;5095036;27;96743;-30
2023/05/14 09:33:58;;;;;;;5.85;3.30;;;;;;;18.58;64.45;101991.72;5076864;27;101433;-31
2023/05/14 09:36:25;;;;;;;7.40;4.07;;;;;;;18.72;64.62;101979.66;5076635;27;100830;-31
2023/05/14 09:38:51;;;;;;;7.50;3.80;;;;;;;18.87;64.04;101985.84;5076892;27;96638;-30
2023/05/14 09:41:16;;;;;;;11.70;4.47;;;;;;;19.03;63.75;101977.28;5077300;27;96908;-31
2023/05/14 09:43:42;;;;;;;5.22;3.22;;;;;;;19.15;63.63;101984.53;5095026;27;99471;-31
2023/05/14 09:46:07;;;;;;;6.18;3.58;;;;;;;19.28;63.19;101985.34;5095354;27;97669;-31
2023/05/14 09:48:33;;;;;;;5.72;3.42;;;;;;;19.37;62.55;101982.81;5095270;27;97204;-31
2023/05/14 09:50:58;;;;;;;7.57;4.22;;;;;;;19.50;63.11;101981.72;5095235;27;96870;-32
2023/05/14 09:53:23;;;;;;;5.90;3.47;;;;;;;19.64;62.79;101990.69;5095247;27;97870;-31
2023/05/14 09:55:49;;;;;;;4.93;3.47;;;;;;;19.73;62.23;101988.13;5095143;27;97880;-31
2023/05/14 09:58:15;;;;;;;7.97;3.63;;;;;;;19.83;61.69;101974.47;5095049;27;96722;-31
2023/05/14 10:00:46;;;;;;;5.72;3.38;;;;;;;19.96;61.26;101981.72;5095406;27;96782;-31
2023/05/14 10:03:14;;;;;;;5.28;3.33;;;;;;;20.06;61.06;101974.44;5095137;27;97956;-32
2023/05/14 10:05:43;;;;;;;5.57;3.17;;;;;;;20.17;60.79;101985.41;5076630;27;100742;-31
2023/05/14 10:08:18;;;;;;;6.38;3.53;;;;;;;20.28;60.32;101984.50;5076712;27;96829;-30
2023/05/14 10:10:44;;;;;;;7.88;3.80;;;;;;;20.32;60.34;101978.59;5079463;27;96842;-32
2023/05/14 10:13:15;;;;;;;4.72;3.35;;;;;;;20.35;59.53;101982.97;5098110;27;98133;-31
2023/05/14 10:15:51;;;;;;;7.10;3.22;;;;;;;20.02;59.89;101982.06;5079490;27;99535;-31
2023/05/14 10:18:22;;;;;;;7.68;3.30;;;;;;;19.89;60.42;101978.59;5080902;27;96696;-31
2023/05/14 10:20:59;;;;;;;4.60;2.97;;;;;;;20.08;60.37;101969.66;5080234;27;96736;-31
2023/05/14 10:23:25;;;;;;;5.78;2.95;;;;;;;20.29;59.83;101972.50;5098193;27;99665;-31
2023/05/14 10:25:50;;;;;;;5.72;3.15;;;;;;;20.33;57.98;101972.09;5098391;27;98043;-32
2023/05/14 10:28:16;;;;;;;4.70;3.22;;;;;;;20.45;59.34;101953.66;5098522;27;96768;-30
2023/05/14 10:30:48;;;;;;;8.52;3.42;;;;;;;20.60;58.66;101957.00;5098789;27;96849;-31
2023/05/14 10:33:15;;;;;;;9.15;3.92;;;;;;;20.77;58.37;101945.38;5079087;27;101112;-32
2023/05/14 10:36:06;;;;;;;7.15;3.08;;;;;;;20.97;58.24;101957.44;5079275;27;100874;-32
2023/05/14 10:38:33;;;;;;;4.97;2.50;;;;;;;21.10;58.08;101954.44;5079096;27;96624;-30
2023/05/14 10:41:20;;;;;;;4.85;2.45;;;;;;;21.16;57.53;101950.25;5079645;27;96864;-31
2023/05/14 10:43:46;;;;;;;6.97;2.63;;;;;;;21.08;57.88;101945.44;5079332;27;100159;-31
2023/05/14 10:46:12;;;;;;;6.28;3.17;;;;;;;21.14;57.91;101942.16;5079185;27;101112;-31
2023/05/14 10:48:40;;;;;;;4.32;2.92;;;;;;;21.30;57.93;101946.28;5098106;27;96467;-31
2023/05/14 10:51:08;;;;;;;5.15;2.63;;;;;;;21.39;56.11;101939.94;5079368;27;96897;-30
2023/05/14 10:53:36;;;;;;;6.20;2.88;;;;;;;21.55;56.38;101933.97;5079199;27;100960;-31
2023/05/14 10:56:03;;;;;;;4.88;2.45;;;;;;;21.61;57.43;101925.97;5097821;27;99058;-31
2023/05/14 10:58:33;;;;;;;8.98;2.58;;;;;;;21.61;54.73;101931.47;5079296;27;96765;-32
2023/05/14 11:00:59;;;;;;;9.82;2.53;;;;;;;21.74;56.13;101933.16;5079371;27;96758;-31
2023/05/14 11:03:29;;;;;;;5.53;3.03;;;;;;;21.84;55.89;101923.00;5097282;27;97468;-31
2023/05/14 11:05:55;;;;;;;5.47;2.92;;;;;;;21.85;55.28;101917.31;5097217;27;99230;-31
2023/05/14 11:08:21;;;;;;;6.75;2.92;;;;;;;21.91;56.33;101921.41;5098082;27;96482;-31
2023/05/14 11:10:48;;;;;;;4.95;2.75;;;;;;;22.04;56.50;101923.91;5079139;27;96892;-31
2023/05/14 11:13:15;;;;;;;3.83;2.20;;;;;;;22.09;56.15;101920.72;5078856;27;100919;-32
2023/05/14 11:15:45;;;;;;;6.40;2.45;;;;;;;22.09;56.17;101918.81;5078653;27;101403;-31
2023/05/14 11:18:11;;;;;;;8.23;2.78;;;;;;;22.04;55.79;101919.25;5097693;27;96698;-31